sensor_id;sensor_type;location;lat;lon;timestamp;P1;durP1;ratioP1;P2;durP2;ratioP2
52878;SDS011;38747;53.140;6.498;2023-03-14T00:02:02;23.23;;;3.43;;
52878;SDS011;38747;53.140;6.498;2023-03-14T00:04:28;16.85;;;2.97;;
52878;SDS011;38747;53.140;6.498;2023-03-14T00:06:53;21.07;;;3.00;;
52878;SDS011;38747;53.140;6.498;2023-03-14T00:09:19;18.02;;;2.85;;
52878;SDS011;38747;53.140;6.498;2023-03-14T00:11:44;18.77;;;2.80;;
52878;SDS011;38747;53.140;6.498;2023-03-14T00:14:10;17.15;;;2.67;;
52878;SDS011;38747;53.140;6.498;2023-03-14T00:16:36;16.20;;;2.75;;
52878;SDS011;38747;53.140;6.498;2023-03-14T00:19:02;18.20;;;2.80;;
52878;SDS011;38747;53.140;6.498;2023-03-14T00:21:28;21.87;;;3.40;;
52878;SDS011;38747;53.140;6.498;2023-03-14T00:23:53;18.38;;;2.80;;
52878;SDS011;38747;53.140;6.498;2023-03-14T00:26:19;21.50;;;2.63;;
52878;SDS011;38747;53.140;6.498;2023-03-14T00:28:46;14.77;;;2.53;;
52878;SDS011;38747;53.140;6.498;2023-03-14T00:31:15;17.73;;;2.85;;
52878;SDS011;38747;53.140;6.498;2023-03-14T00:33:42;28.73;;;3.17;;
52878;SDS011;38747;53.140;6.498;2023-03-14T00:36:09;23.75;;;2.83;;
52878;SDS011;38747;53.140;6.498;2023-03-14T00:38:37;19.70;;;3.17;;
52878;SDS011;38747;53.140;6.498;2023-03-14T00:41:08;16.63;;;2.50;;
52878;SDS011;38747;53.140;6.498;2023-03-14T00:43:36;16.27;;;2.15;;
52878;SDS011;38747;53.140;6.498;2023-03-14T00:46:02;15.18;;;2.40;;
52878;SDS011;38747;53.140;6.498;2023-03-14T00:48:28;20.15;;;3.22;;
52878;SDS011;38747;53.140;6.498;2023-03-14T00:50:54;18.60;;;2.87;;
52878;SDS011;38747;53.140;6.498;2023-03-14T00:53:20;17.05;;;2.63;;
52878;SDS011;38747;53.140;6.498;2023-03-14T00:55:45;17.07;;;2.73;;
52878;SDS011;38747;53.140;6.498;2023-03-14T00:58:12;15.05;;;2.70;;
52878;SDS011;38747;53.140;6.498;2023-03-14T01:00:39;17.85;;;2.28;;
52878;SDS011;38747;53.140;6.498;2023-03-14T01:03:05;14.80;;;2.73;;
52878;SDS011;38747;53.140;6.498;2023-03-14T01:05:32;16.77;;;2.95;;
52878;SDS011;38747;53.140;6.498;2023-03-14T01:07:58;18.73;;;2.28;;
52878;SDS011;38747;53.140;6.498;2023-03-14T01:10:23;17.33;;;2.47;;
52878;SDS011;38747;53.140;6.498;2023-03-14T01:12:49;15.65;;;2.92;;
52878;SDS011;38747;53.140;6.498;2023-03-14T01:15:15;19.77;;;2.50;;
52878;SDS011;38747;53.140;6.498;2023-03-14T01:17:41;18.05;;;2.53;;
52878;SDS011;38747;53.140;6.498;2023-03-14T01:20:07;14.27;;;2.63;;
52878;SDS011;38747;53.140;6.498;2023-03-14T01:22:36;15.80;;;2.20;;
52878;SDS011;38747;53.140;6.498;2023-03-14T01:25:04;17.08;;;2.58;;
52878;SDS011;38747;53.140;6.498;2023-03-14T01:27:30;18.48;;;2.53;;
52878;SDS011;38747;53.140;6.498;2023-03-14T01:29:55;14.90;;;2.30;;
52878;SDS011;38747;53.140;6.498;2023-03-14T01:32:21;16.45;;;2.10;;
52878;SDS011;38747;53.140;6.498;2023-03-14T01:34:46;15.97;;;2.30;;
52878;SDS011;38747;53.140;6.498;2023-03-14T01:37:12;13.80;;;2.25;;
52878;SDS011;38747;53.140;6.498;2023-03-14T01:39:38;18.27;;;2.20;;
52878;SDS011;38747;53.140;6.498;2023-03-14T01:42:03;14.55;;;3.05;;
52878;SDS011;38747;53.140;6.498;2023-03-14T01:44:46;17.93;;;2.63;;
52878;SDS011;38747;53.140;6.498;2023-03-14T01:47:20;12.35;;;2.22;;
52878;SDS011;38747;53.140;6.498;2023-03-14T01:49:46;10.98;;;2.17;;
52878;SDS011;38747;53.140;6.498;2023-03-14T01:52:32;12.93;;;2.33;;
52878;SDS011;38747;53.140;6.498;2023-03-14T01:55:04;11.02;;;2.03;;
52878;SDS011;38747;53.140;6.498;2023-03-14T01:57:33;10.10;;;1.88;;
52878;SDS011;38747;53.140;6.498;2023-03-14T02:00:35;15.05;;;2.25;;
52878;SDS011;38747;53.140;6.498;2023-03-14T02:02:58;14.93;;;2.60;;
52878;SDS011;38747;53.140;6.498;2023-03-14T02:05:31;13.33;;;2.00;;
52878;SDS011;38747;53.140;6.498;2023-03-14T02:07:59;10.52;;;1.67;;
52878;SDS011;38747;53.140;6.498;2023-03-14T02:10:30;13.77;;;1.98;;
52878;SDS011;38747;53.140;6.498;2023-03-14T02:13:02;10.40;;;1.90;;
52878;SDS011;38747;53.140;6.498;2023-03-14T02:15:29;13.38;;;2.17;;
52878;SDS011;38747;53.140;6.498;2023-03-14T02:17:55;12.20;;;1.60;;
52878;SDS011;38747;53.140;6.498;2023-03-14T02:23:10;12.25;;;1.83;;
52878;SDS011;38747;53.140;6.498;2023-03-14T02:28:16;10.43;;;1.50;;
52878;SDS011;38747;53.140;6.498;2023-03-14T02:30:42;10.77;;;2.00;;
52878;SDS011;38747;53.140;6.498;2023-03-14T02:33:12;10.18;;;1.70;;
52878;SDS011;38747;53.140;6.498;2023-03-14T02:35:41;13.90;;;1.90;;
52878;SDS011;38747;53.140;6.498;2023-03-14T02:38:23;13.40;;;1.90;;
52878;SDS011;38747;53.140;6.498;2023-03-14T02:40:50;11.05;;;2.15;;
52878;SDS011;38747;53.140;6.498;2023-03-14T02:43:16;9.53;;;1.80;;
52878;SDS011;38747;53.140;6.498;2023-03-14T02:45:43;11.65;;;2.05;;
52878;SDS011;38747;53.140;6.498;2023-03-14T02:48:21;11.10;;;1.80;;
52878;SDS011;38747;53.140;6.498;2023-03-14T02:50:51;9.65;;;2.20;;
52878;SDS011;38747;53.140;6.498;2023-03-14T02:53:22;8.27;;;1.50;;
52878;SDS011;38747;53.140;6.498;2023-03-14T02:55:51;9.85;;;1.80;;
52878;SDS011;38747;53.140;6.498;2023-03-14T02:58:18;10.68;;;1.98;;
52878;SDS011;38747;53.140;6.498;2023-03-14T03:00:44;13.05;;;2.00;;
52878;SDS011;38747;53.140;6.498;2023-03-14T03:03:09;11.23;;;2.20;;
52878;SDS011;38747;53.140;6.498;2023-03-14T03:05:35;8.63;;;1.50;;
52878;SDS011;38747;53.140;6.498;2023-03-14T03:08:01;9.87;;;2.10;;
52878;SDS011;38747;53.140;6.498;2023-03-14T03:10:27;13.80;;;2.28;;
52878;SDS011;38747;53.140;6.498;2023-03-14T03:12:53;11.73;;;2.40;;
52878;SDS011;38747;53.140;6.498;2023-03-14T03:15:19;9.60;;;2.40;;
52878;SDS011;38747;53.140;6.498;2023-03-14T03:17:45;9.65;;;2.30;;
52878;SDS011;38747;53.140;6.498;2023-03-14T03:20:10;10.20;;;2.40;;
52878;SDS011;38747;53.140;6.498;2023-03-14T03:22:37;13.43;;;2.30;;
52878;SDS011;38747;53.140;6.498;2023-03-14T03:25:04;10.30;;;2.42;;
52878;SDS011;38747;53.140;6.498;2023-03-14T03:27:31;12.38;;;2.55;;
52878;SDS011;38747;53.140;6.498;2023-03-14T03:29:58;9.40;;;2.27;;
52878;SDS011;38747;53.140;6.498;2023-03-14T03:32:24;12.68;;;2.40;;
52878;SDS011;38747;53.140;6.498;2023-03-14T03:34:49;10.57;;;2.25;;
52878;SDS011;38747;53.140;6.498;2023-03-14T03:37:15;10.90;;;2.70;;
52878;SDS011;38747;53.140;6.498;2023-03-14T03:39:41;12.63;;;2.58;;
52878;SDS011;38747;53.140;6.498;2023-03-14T03:42:07;9.23;;;2.43;;
52878;SDS011;38747;53.140;6.498;2023-03-14T03:44:33;11.48;;;3.50;;
52878;SDS011;38747;53.140;6.498;2023-03-14T03:46:58;13.70;;;3.20;;
52878;SDS011;38747;53.140;6.498;2023-03-14T03:49:24;13.70;;;2.80;;
52878;SDS011;38747;53.140;6.498;2023-03-14T03:51:53;9.63;;;2.85;;
52878;SDS011;38747;53.140;6.498;2023-03-14T03:54:18;11.80;;;3.30;;
52878;SDS011;38747;53.140;6.498;2023-03-14T03:56:44;21.05;;;5.07;;
52878;SDS011;38747;53.140;6.498;2023-03-14T03:59:09;12.17;;;3.27;;
52878;SDS011;38747;53.140;6.498;2023-03-14T04:01:35;18.97;;;4.03;;
52878;SDS011;38747;53.140;6.498;2023-03-14T04:04:01;12.70;;;3.10;;
52878;SDS011;38747;53.140;6.498;2023-03-14T04:06:26;11.87;;;3.27;;
52878;SDS011;38747;53.140;6.498;2023-03-14T04:08:53;18.55;;;4.20;;
52878;SDS011;38747;53.140;6.498;2023-03-14T04:11:18;15.53;;;3.30;;
52878;SDS011;38747;53.140;6.498;2023-03-14T04:13:44;15.60;;;3.97;;
52878;SDS011;38747;53.140;6.498;2023-03-14T04:16:12;12.57;;;3.67;;
52878;SDS011;38747;53.140;6.498;2023-03-14T04:18:44;17.60;;;3.75;;
52878;SDS011;38747;53.140;6.498;2023-03-14T04:21:09;14.27;;;3.90;;
52878;SDS011;38747;53.140;6.498;2023-03-14T04:23:35;12.35;;;3.65;;
52878;SDS011;38747;53.140;6.498;2023-03-14T04:26:01;17.02;;;4.00;;
52878;SDS011;38747;53.140;6.498;2023-03-14T04:28:27;16.27;;;3.70;;
52878;SDS011;38747;53.140;6.498;2023-03-14T04:30:53;15.18;;;4.20;;
52878;SDS011;38747;53.140;6.498;2023-03-14T04:33:18;17.40;;;4.60;;
52878;SDS011;38747;53.140;6.498;2023-03-14T04:35:44;16.20;;;4.17;;
52878;SDS011;38747;53.140;6.498;2023-03-14T04:38:10;16.08;;;4.18;;
52878;SDS011;38747;53.140;6.498;2023-03-14T04:40:38;14.95;;;4.50;;
52878;SDS011;38747;53.140;6.498;2023-03-14T04:43:05;15.25;;;4.90;;
52878;SDS011;38747;53.140;6.498;2023-03-14T04:45:31;15.57;;;4.67;;
52878;SDS011;38747;53.140;6.498;2023-03-14T04:47:57;14.63;;;4.82;;
52878;SDS011;38747;53.140;6.498;2023-03-14T04:50:23;15.57;;;5.57;;
52878;SDS011;38747;53.140;6.498;2023-03-14T04:52:48;13.07;;;4.75;;
52878;SDS011;38747;53.140;6.498;2023-03-14T04:55:14;14.47;;;5.03;;
52878;SDS011;38747;53.140;6.498;2023-03-14T04:57:40;13.02;;;4.80;;
52878;SDS011;38747;53.140;6.498;2023-03-14T05:00:05;17.60;;;5.00;;
52878;SDS011;38747;53.140;6.498;2023-03-14T05:02:32;14.68;;;5.20;;
52878;SDS011;38747;53.140;6.498;2023-03-14T05:04:58;15.10;;;4.32;;
52878;SDS011;38747;53.140;6.498;2023-03-14T05:07:24;14.87;;;5.07;;
52878;SDS011;38747;53.140;6.498;2023-03-14T05:09:50;11.52;;;4.03;;
52878;SDS011;38747;53.140;6.498;2023-03-14T05:12:15;19.03;;;4.40;;
52878;SDS011;38747;53.140;6.498;2023-03-14T05:14:41;11.93;;;3.92;;
52878;SDS011;38747;53.140;6.498;2023-03-14T05:17:07;13.13;;;4.57;;
52878;SDS011;38747;53.140;6.498;2023-03-14T05:19:32;14.33;;;4.53;;
52878;SDS011;38747;53.140;6.498;2023-03-14T05:21:58;13.18;;;3.92;;
52878;SDS011;38747;53.140;6.498;2023-03-14T05:24:23;15.03;;;4.43;;
52878;SDS011;38747;53.140;6.498;2023-03-14T05:26:49;16.00;;;4.20;;
52878;SDS011;38747;53.140;6.498;2023-03-14T05:29:15;13.30;;;3.93;;
52878;SDS011;38747;53.140;6.498;2023-03-14T05:31:40;15.33;;;4.37;;
52878;SDS011;38747;53.140;6.498;2023-03-14T05:34:06;16.73;;;4.83;;
52878;SDS011;38747;53.140;6.498;2023-03-14T05:36:31;16.00;;;3.90;;
52878;SDS011;38747;53.140;6.498;2023-03-14T05:38:57;16.13;;;4.20;;
52878;SDS011;38747;53.140;6.498;2023-03-14T05:41:23;14.17;;;4.87;;
52878;SDS011;38747;53.140;6.498;2023-03-14T05:43:48;15.85;;;4.22;;
52878;SDS011;38747;53.140;6.498;2023-03-14T05:46:14;16.57;;;4.23;;
52878;SDS011;38747;53.140;6.498;2023-03-14T05:48:39;14.80;;;4.10;;
52878;SDS011;38747;53.140;6.498;2023-03-14T05:51:05;11.85;;;3.88;;
52878;SDS011;38747;53.140;6.498;2023-03-14T05:53:31;11.73;;;3.87;;
52878;SDS011;38747;53.140;6.498;2023-03-14T05:55:56;14.65;;;3.70;;
52878;SDS011;38747;53.140;6.498;2023-03-14T05:58:22;14.83;;;4.20;;
52878;SDS011;38747;53.140;6.498;2023-03-14T06:00:48;11.15;;;3.95;;
52878;SDS011;38747;53.140;6.498;2023-03-14T06:03:13;10.30;;;3.23;;
52878;SDS011;38747;53.140;6.498;2023-03-14T06:05:39;13.27;;;3.42;;
52878;SDS011;38747;53.140;6.498;2023-03-14T06:08:05;10.67;;;3.03;;
52878;SDS011;38747;53.140;6.498;2023-03-14T06:10:30;9.00;;;3.30;;
52878;SDS011;38747;53.140;6.498;2023-03-14T06:12:56;10.33;;;3.77;;
52878;SDS011;38747;53.140;6.498;2023-03-14T06:15:21;11.02;;;3.30;;
52878;SDS011;38747;53.140;6.498;2023-03-14T06:17:47;11.90;;;3.50;;
52878;SDS011;38747;53.140;6.498;2023-03-14T06:20:13;13.17;;;3.57;;
52878;SDS011;38747;53.140;6.498;2023-03-14T06:22:39;9.73;;;3.10;;
52878;SDS011;38747;53.140;6.498;2023-03-14T06:25:05;9.50;;;3.33;;
52878;SDS011;38747;53.140;6.498;2023-03-14T06:27:31;6.60;;;2.63;;
52878;SDS011;38747;53.140;6.498;2023-03-14T06:29:57;9.57;;;2.90;;
52878;SDS011;38747;53.140;6.498;2023-03-14T06:32:23;8.88;;;2.70;;
52878;SDS011;38747;53.140;6.498;2023-03-14T06:34:49;6.53;;;2.10;;
52878;SDS011;38747;53.140;6.498;2023-03-14T06:37:15;7.53;;;1.33;;
52878;SDS011;38747;53.140;6.498;2023-03-14T06:39:41;9.18;;;1.13;;
52878;SDS011;38747;53.140;6.498;2023-03-14T06:42:06;6.07;;;1.03;;
52878;SDS011;38747;53.140;6.498;2023-03-14T06:44:32;7.38;;;0.80;;
52878;SDS011;38747;53.140;6.498;2023-03-14T06:46:57;6.07;;;0.80;;
52878;SDS011;38747;53.140;6.498;2023-03-14T06:49:23;5.77;;;0.80;;
52878;SDS011;38747;53.140;6.498;2023-03-14T06:51:49;7.93;;;1.20;;
52878;SDS011;38747;53.140;6.498;2023-03-14T06:54:14;13.27;;;1.13;;
52878;SDS011;38747;53.140;6.498;2023-03-14T06:56:40;12.38;;;1.25;;
52878;SDS011;38747;53.140;6.498;2023-03-14T06:59:06;4.67;;;0.97;;
52878;SDS011;38747;53.140;6.498;2023-03-14T07:01:31;5.78;;;0.88;;
52878;SDS011;38747;53.140;6.498;2023-03-14T07:03:57;10.20;;;1.23;;
52878;SDS011;38747;53.140;6.498;2023-03-14T07:06:23;3.37;;;0.57;;
52878;SDS011;38747;53.140;6.498;2023-03-14T07:08:49;6.95;;;0.68;;
52878;SDS011;38747;53.140;6.498;2023-03-14T07:11:15;4.20;;;0.77;;
52878;SDS011;38747;53.140;6.498;2023-03-14T07:13:40;4.72;;;1.35;;
52878;SDS011;38747;53.140;6.498;2023-03-14T07:16:06;5.47;;;0.73;;
52878;SDS011;38747;53.140;6.498;2023-03-14T07:18:32;5.80;;;0.80;;
52878;SDS011;38747;53.140;6.498;2023-03-14T07:20:58;4.27;;;0.57;;
52878;SDS011;38747;53.140;6.498;2023-03-14T07:23:23;6.00;;;0.70;;
52878;SDS011;38747;53.140;6.498;2023-03-14T07:25:49;4.33;;;0.83;;
52878;SDS011;38747;53.140;6.498;2023-03-14T07:28:16;5.32;;;0.68;;
52878;SDS011;38747;53.140;6.498;2023-03-14T07:30:41;3.90;;;1.07;;
52878;SDS011;38747;53.140;6.498;2023-03-14T07:33:07;2.67;;;0.45;;
52878;SDS011;38747;53.140;6.498;2023-03-14T07:35:32;3.53;;;0.50;;
52878;SDS011;38747;53.140;6.498;2023-03-14T07:37:58;5.47;;;0.73;;
52878;SDS011;38747;53.140;6.498;2023-03-14T07:40:24;4.20;;;0.50;;
52878;SDS011;38747;53.140;6.498;2023-03-14T07:42:49;3.63;;;0.60;;
52878;SDS011;38747;53.140;6.498;2023-03-14T07:45:15;3.80;;;1.07;;
52878;SDS011;38747;53.140;6.498;2023-03-14T07:47:41;3.13;;;0.52;;
52878;SDS011;38747;53.140;6.498;2023-03-14T07:50:07;3.33;;;0.43;;
52878;SDS011;38747;53.140;6.498;2023-03-14T07:52:33;4.47;;;0.70;;
52878;SDS011;38747;53.140;6.498;2023-03-14T07:54:59;4.93;;;0.60;;
52878;SDS011;38747;53.140;6.498;2023-03-14T07:57:24;5.13;;;0.70;;
52878;SDS011;38747;53.140;6.498;2023-03-14T07:59:50;3.10;;;0.77;;
52878;SDS011;38747;53.140;6.498;2023-03-14T08:02:16;3.13;;;0.60;;
52878;SDS011;38747;53.140;6.498;2023-03-14T08:04:42;5.32;;;0.70;;
52878;SDS011;38747;53.140;6.498;2023-03-14T08:07:08;4.40;;;0.70;;
52878;SDS011;38747;53.140;6.498;2023-03-14T08:09:34;2.40;;;0.47;;
52878;SDS011;38747;53.140;6.498;2023-03-14T08:11:59;6.47;;;0.90;;
52878;SDS011;38747;53.140;6.498;2023-03-14T08:14:25;2.93;;;0.70;;
52878;SDS011;38747;53.140;6.498;2023-03-14T08:16:51;5.60;;;0.60;;
52878;SDS011;38747;53.140;6.498;2023-03-14T08:19:17;6.50;;;0.95;;
52878;SDS011;38747;53.140;6.498;2023-03-14T08:21:42;4.77;;;0.60;;
52878;SDS011;38747;53.140;6.498;2023-03-14T08:24:08;4.97;;;0.90;;
52878;SDS011;38747;53.140;6.498;2023-03-14T08:26:34;8.17;;;0.80;;
52878;SDS011;38747;53.140;6.498;2023-03-14T08:28:59;4.03;;;0.60;;
52878;SDS011;38747;53.140;6.498;2023-03-14T08:31:25;4.70;;;0.57;;
52878;SDS011;38747;53.140;6.498;2023-03-14T08:33:51;7.15;;;1.13;;
52878;SDS011;38747;53.140;6.498;2023-03-14T08:36:18;5.87;;;1.23;;
52878;SDS011;38747;53.140;6.498;2023-03-14T08:38:44;8.27;;;0.60;;
52878;SDS011;38747;53.140;6.498;2023-03-14T08:41:10;3.55;;;0.90;;
52878;SDS011;38747;53.140;6.498;2023-03-14T08:43:36;9.87;;;1.20;;
52878;SDS011;38747;53.140;6.498;2023-03-14T08:46:02;10.85;;;1.02;;
52878;SDS011;38747;53.140;6.498;2023-03-14T08:48:28;8.18;;;0.82;;
52878;SDS011;38747;53.140;6.498;2023-03-14T08:51:16;4.85;;;1.00;;
52878;SDS011;38747;53.140;6.498;2023-03-14T08:53:42;5.47;;;0.90;;
52878;SDS011;38747;53.140;6.498;2023-03-14T08:56:08;7.57;;;1.05;;
52878;SDS011;38747;53.140;6.498;2023-03-14T08:58:35;11.15;;;1.52;;
52878;SDS011;38747;53.140;6.498;2023-03-14T09:01:03;4.65;;;0.60;;
52878;SDS011;38747;53.140;6.498;2023-03-14T09:03:30;12.57;;;1.38;;
52878;SDS011;38747;53.140;6.498;2023-03-14T09:05:55;6.00;;;0.90;;
52878;SDS011;38747;53.140;6.498;2023-03-14T09:08:21;8.43;;;1.63;;
52878;SDS011;38747;53.140;6.498;2023-03-14T09:10:46;13.63;;;2.88;;
52878;SDS011;38747;53.140;6.498;2023-03-14T09:13:12;9.07;;;1.47;;
52878;SDS011;38747;53.140;6.498;2023-03-14T09:15:38;9.32;;;0.95;;
52878;SDS011;38747;53.140;6.498;2023-03-14T09:18:03;17.53;;;1.83;;
52878;SDS011;38747;53.140;6.498;2023-03-14T09:20:29;9.55;;;1.80;;
52878;SDS011;38747;53.140;6.498;2023-03-14T09:22:55;10.43;;;1.40;;
52878;SDS011;38747;53.140;6.498;2023-03-14T09:25:20;8.02;;;1.00;;
52878;SDS011;38747;53.140;6.498;2023-03-14T09:27:46;10.33;;;1.50;;
52878;SDS011;38747;53.140;6.498;2023-03-14T09:30:12;12.48;;;1.45;;
52878;SDS011;38747;53.140;6.498;2023-03-14T09:32:37;11.67;;;1.70;;
52878;SDS011;38747;53.140;6.498;2023-03-14T09:35:03;19.10;;;2.00;;
52878;SDS011;38747;53.140;6.498;2023-03-14T09:37:29;14.77;;;1.93;;
52878;SDS011;38747;53.140;6.498;2023-03-14T09:39:55;17.23;;;1.67;;
52878;SDS011;38747;53.140;6.498;2023-03-14T09:42:21;14.33;;;1.83;;
52878;SDS011;38747;53.140;6.498;2023-03-14T09:44:57;12.85;;;1.40;;
52878;SDS011;38747;53.140;6.498;2023-03-14T09:47:25;16.42;;;1.40;;
52878;SDS011;38747;53.140;6.498;2023-03-14T09:49:52;12.80;;;1.13;;
52878;SDS011;38747;53.140;6.498;2023-03-14T09:52:25;9.37;;;1.73;;
52878;SDS011;38747;53.140;6.498;2023-03-14T09:55:00;8.93;;;1.30;;
52878;SDS011;38747;53.140;6.498;2023-03-14T09:57:32;10.57;;;1.10;;
52878;SDS011;38747;53.140;6.498;2023-03-14T10:00:04;11.25;;;1.42;;
52878;SDS011;38747;53.140;6.498;2023-03-14T10:02:52;8.03;;;1.87;;
52878;SDS011;38747;53.140;6.498;2023-03-14T10:05:23;13.00;;;1.60;;
52878;SDS011;38747;53.140;6.498;2023-03-14T10:07:50;10.60;;;1.30;;
52878;SDS011;38747;53.140;6.498;2023-03-14T10:10:20;21.92;;;2.30;;
52878;SDS011;38747;53.140;6.498;2023-03-14T10:12:54;10.60;;;1.38;;
52878;SDS011;38747;53.140;6.498;2023-03-14T10:15:24;9.03;;;1.37;;
52878;SDS011;38747;53.140;6.498;2023-03-14T10:17:52;14.80;;;1.92;;
52878;SDS011;38747;53.140;6.498;2023-03-14T10:20:32;12.48;;;2.00;;
52878;SDS011;38747;53.140;6.498;2023-03-14T10:23:16;8.90;;;1.63;;
52878;SDS011;38747;53.140;6.498;2023-03-14T10:26:07;8.88;;;1.10;;
52878;SDS011;38747;53.140;6.498;2023-03-14T10:28:43;12.20;;;1.30;;
52878;SDS011;38747;53.140;6.498;2023-03-14T10:31:10;8.57;;;0.98;;
52878;SDS011;38747;53.140;6.498;2023-03-14T10:33:37;10.30;;;1.65;;
52878;SDS011;38747;53.140;6.498;2023-03-14T10:36:04;11.80;;;1.30;;
52878;SDS011;38747;53.140;6.498;2023-03-14T10:38:40;12.30;;;1.33;;
52878;SDS011;38747;53.140;6.498;2023-03-14T10:41:14;13.03;;;1.37;;
52878;SDS011;38747;53.140;6.498;2023-03-14T10:43:56;7.75;;;1.30;;
52878;SDS011;38747;53.140;6.498;2023-03-14T10:46:24;8.77;;;1.23;;
52878;SDS011;38747;53.140;6.498;2023-03-14T10:48:53;9.90;;;1.10;;
52878;SDS011;38747;53.140;6.498;2023-03-14T10:51:24;8.40;;;1.00;;
52878;SDS011;38747;53.140;6.498;2023-03-14T10:56:23;9.52;;;0.85;;
52878;SDS011;38747;53.140;6.498;2023-03-14T10:58:51;5.30;;;1.00;;
52878;SDS011;38747;53.140;6.498;2023-03-14T11:07:13;7.70;;;1.25;;
52878;SDS011;38747;53.140;6.498;2023-03-14T11:12:52;4.68;;;0.75;;
52878;SDS011;38747;53.140;6.498;2023-03-14T11:15:29;13.20;;;1.15;;
52878;SDS011;38747;53.140;6.498;2023-03-14T11:18:14;7.97;;;1.30;;
52878;SDS011;38747;53.140;6.498;2023-03-14T11:20:54;9.52;;;1.58;;
52878;SDS011;38747;53.140;6.498;2023-03-14T11:28:40;7.28;;;1.48;;
52878;SDS011;38747;53.140;6.498;2023-03-14T11:31:27;10.07;;;1.20;;
52878;SDS011;38747;53.140;6.498;2023-03-14T11:37:06;6.07;;;0.82;;
52878;SDS011;38747;53.140;6.498;2023-03-14T11:39:40;8.02;;;1.10;;
52878;SDS011;38747;53.140;6.498;2023-03-14T11:42:17;4.10;;;0.73;;
52878;SDS011;38747;53.140;6.498;2023-03-14T11:44:45;6.37;;;0.80;;
52878;SDS011;38747;53.140;6.498;2023-03-14T11:47:21;6.13;;;0.80;;
52878;SDS011;38747;53.140;6.498;2023-03-14T11:52:50;5.35;;;1.00;;
52878;SDS011;38747;53.140;6.498;2023-03-14T11:55:28;4.32;;;0.98;;
52878;SDS011;38747;53.140;6.498;2023-03-14T11:58:01;4.53;;;0.70;;
52878;SDS011;38747;53.140;6.498;2023-03-14T12:00:39;5.85;;;0.73;;
52878;SDS011;38747;53.140;6.498;2023-03-14T12:03:21;6.18;;;0.73;;
52878;SDS011;38747;53.140;6.498;2023-03-14T12:08:30;4.18;;;0.60;;
52878;SDS011;38747;53.140;6.498;2023-03-14T12:11:27;5.23;;;0.70;;
52878;SDS011;38747;53.140;6.498;2023-03-14T12:17:06;4.05;;;0.70;;
52878;SDS011;38747;53.140;6.498;2023-03-14T12:19:43;5.85;;;0.80;;
52878;SDS011;38747;53.140;6.498;2023-03-14T12:24:45;5.83;;;0.70;;
52878;SDS011;38747;53.140;6.498;2023-03-14T12:27:37;8.82;;;1.00;;
52878;SDS011;38747;53.140;6.498;2023-03-14T12:30:04;8.45;;;1.17;;
52878;SDS011;38747;53.140;6.498;2023-03-14T12:33:10;6.45;;;0.95;;
52878;SDS011;38747;53.140;6.498;2023-03-14T12:35:35;7.70;;;1.08;;
52878;SDS011;38747;53.140;6.498;2023-03-14T12:38:00;4.23;;;0.70;;
52878;SDS011;38747;53.140;6.498;2023-03-14T12:40:31;5.82;;;0.77;;
52878;SDS011;38747;53.140;6.498;2023-03-14T12:43:01;8.93;;;1.02;;
52878;SDS011;38747;53.140;6.498;2023-03-14T12:45:35;8.07;;;0.90;;
52878;SDS011;38747;53.140;6.498;2023-03-14T12:48:07;11.65;;;1.00;;
52878;SDS011;38747;53.140;6.498;2023-03-14T12:58:56;5.72;;;0.60;;
52878;SDS011;38747;53.140;6.498;2023-03-14T13:02:02;6.20;;;0.90;;
52878;SDS011;38747;53.140;6.498;2023-03-14T13:04:43;8.87;;;1.40;;
52878;SDS011;38747;53.140;6.498;2023-03-14T13:10:21;8.18;;;1.02;;
52878;SDS011;38747;53.140;6.498;2023-03-14T13:15:38;5.85;;;0.70;;
52878;SDS011;38747;53.140;6.498;2023-03-14T13:18:10;8.57;;;0.80;;
52878;SDS011;38747;53.140;6.498;2023-03-14T13:21:05;5.03;;;0.80;;
52878;SDS011;38747;53.140;6.498;2023-03-14T13:26:25;4.55;;;0.60;;
52878;SDS011;38747;53.140;6.498;2023-03-14T13:28:59;4.95;;;0.90;;
52878;SDS011;38747;53.140;6.498;2023-03-14T13:31:25;3.80;;;0.60;;
52878;SDS011;38747;53.140;6.498;2023-03-14T13:34:01;6.05;;;0.70;;
52878;SDS011;38747;53.140;6.498;2023-03-14T13:36:30;5.15;;;0.80;;
52878;SDS011;38747;53.140;6.498;2023-03-14T13:38:58;4.88;;;1.02;;
52878;SDS011;38747;53.140;6.498;2023-03-14T13:41:26;4.63;;;0.70;;
52878;SDS011;38747;53.140;6.498;2023-03-14T13:44:03;8.82;;;1.10;;
52878;SDS011;38747;53.140;6.498;2023-03-14T13:46:33;6.82;;;0.80;;
52878;SDS011;38747;53.140;6.498;2023-03-14T13:49:04;10.20;;;1.15;;
52878;SDS011;38747;53.140;6.498;2023-03-14T13:51:32;11.52;;;0.98;;
52878;SDS011;38747;53.140;6.498;2023-03-14T13:53:58;5.30;;;0.60;;
52878;SDS011;38747;53.140;6.498;2023-03-14T13:56:28;8.80;;;1.27;;
52878;SDS011;38747;53.140;6.498;2023-03-14T13:58:56;6.90;;;0.90;;
52878;SDS011;38747;53.140;6.498;2023-03-14T14:01:23;7.97;;;1.00;;
52878;SDS011;38747;53.140;6.498;2023-03-14T14:03:50;9.73;;;1.20;;
52878;SDS011;38747;53.140;6.498;2023-03-14T14:08:45;6.15;;;0.70;;
52878;SDS011;38747;53.140;6.498;2023-03-14T14:11:15;5.35;;;0.70;;
52878;SDS011;38747;53.140;6.498;2023-03-14T14:13:47;5.13;;;0.87;;
52878;SDS011;38747;53.140;6.498;2023-03-14T14:16:13;5.18;;;0.82;;
52878;SDS011;38747;53.140;6.498;2023-03-14T14:18:42;6.10;;;0.77;;
52878;SDS011;38747;53.140;6.498;2023-03-14T14:21:08;9.23;;;0.80;;
52878;SDS011;38747;53.140;6.498;2023-03-14T14:23:35;5.63;;;0.77;;
52878;SDS011;38747;53.140;6.498;2023-03-14T14:26:01;9.10;;;0.98;;
52878;SDS011;38747;53.140;6.498;2023-03-14T14:28:32;9.30;;;1.25;;
52878;SDS011;38747;53.140;6.498;2023-03-14T14:31:04;7.65;;;0.90;;
52878;SDS011;38747;53.140;6.498;2023-03-14T14:33:37;5.10;;;0.67;;
52878;SDS011;38747;53.140;6.498;2023-03-14T14:36:05;8.30;;;0.95;;
52878;SDS011;38747;53.140;6.498;2023-03-14T14:38:39;9.77;;;0.90;;
52878;SDS011;38747;53.140;6.498;2023-03-14T14:41:05;5.60;;;0.70;;
52878;SDS011;38747;53.140;6.498;2023-03-14T14:43:32;9.15;;;1.13;;
52878;SDS011;38747;53.140;6.498;2023-03-14T14:46:05;8.10;;;1.20;;
52878;SDS011;38747;53.140;6.498;2023-03-14T14:48:35;8.80;;;0.90;;
52878;SDS011;38747;53.140;6.498;2023-03-14T14:51:03;6.13;;;1.02;;
52878;SDS011;38747;53.140;6.498;2023-03-14T14:56:04;7.43;;;1.00;;
52878;SDS011;38747;53.140;6.498;2023-03-14T14:58:47;8.48;;;1.40;;
52878;SDS011;38747;53.140;6.498;2023-03-14T15:01:22;8.97;;;1.10;;
52878;SDS011;38747;53.140;6.498;2023-03-14T15:03:52;5.00;;;0.70;;
52878;SDS011;38747;53.140;6.498;2023-03-14T15:06:19;6.72;;;0.90;;
52878;SDS011;38747;53.140;6.498;2023-03-14T15:08:45;7.38;;;0.80;;
52878;SDS011;38747;53.140;6.498;2023-03-14T15:11:22;4.32;;;0.65;;
52878;SDS011;38747;53.140;6.498;2023-03-14T15:13:50;7.50;;;1.10;;
52878;SDS011;38747;53.140;6.498;2023-03-14T15:16:18;5.95;;;0.70;;
52878;SDS011;38747;53.140;6.498;2023-03-14T15:18:55;6.82;;;0.80;;
52878;SDS011;38747;53.140;6.498;2023-03-14T15:21:23;7.20;;;0.80;;
52878;SDS011;38747;53.140;6.498;2023-03-14T15:23:50;10.65;;;1.00;;
52878;SDS011;38747;53.140;6.498;2023-03-14T15:26:24;9.57;;;1.07;;
52878;SDS011;38747;53.140;6.498;2023-03-14T15:28:51;5.70;;;1.10;;
52878;SDS011;38747;53.140;6.498;2023-03-14T15:31:17;8.30;;;1.17;;
52878;SDS011;38747;53.140;6.498;2023-03-14T15:33:44;15.23;;;1.35;;
52878;SDS011;38747;53.140;6.498;2023-03-14T15:36:15;9.57;;;0.80;;
52878;SDS011;38747;53.140;6.498;2023-03-14T15:38:49;6.60;;;0.83;;
52878;SDS011;38747;53.140;6.498;2023-03-14T15:41:16;8.07;;;0.90;;
52878;SDS011;38747;53.140;6.498;2023-03-14T15:43:41;6.72;;;0.77;;
52878;SDS011;38747;53.140;6.498;2023-03-14T15:46:10;8.53;;;1.13;;
52878;SDS011;38747;53.140;6.498;2023-03-14T15:48:36;5.53;;;1.10;;